Time;durP1;ratioP1;P1;durP2;ratioP2;P2;SDS_P1;SDS_P2;PMS_P1;PMS_P2;Temp;Humidity;BMP_temperature;BMP_pressure;BME280_temperature;BME280_humidity;BME280_pressure;Samples;Min_cycle;Max_cycle;Signal;HPM_P1;HPM_P2
2023/06/19 00:00:45;;;;;;;17.15;10.95;;;;;;;18.40;49.51;100527.69;1770918;81;21190;-55
2023/06/19 00:03:51;;;;;;;17.85;10.75;;;;;;;18.37;49.64;100518.93;1770889;79;21201;-55
2023/06/19 00:06:58;;;;;;;18.95;10.65;;;;;;;18.32;49.72;100522.38;1770848;81;21289;-55
2023/06/19 00:10:04;;;;;;;16.75;9.90;;;;;;;18.27;49.74;100524.09;1771005;79;21216;-54
2023/06/19 00:13:11;;;;;;;17.48;10.40;;;;;;;18.23;49.85;100527.88;1770970;79;21291;-55
2023/06/19 00:16:19;;;;;;;15.85;10.53;;;;;;;18.19;50.02;100522.45;1770936;80;21339;-54
2023/06/19 00:19:25;;;;;;;17.65;11.25;;;;;;;18.18;50.17;100524.05;1770853;79;21784;-54
2023/06/19 00:22:32;;;;;;;14.70;10.48;;;;;;;18.15;50.31;100518.95;1771652;78;21212;-54
2023/06/19 00:25:37;;;;;;;16.55;10.98;;;;;;;18.10;50.34;100515.99;1770900;81;21335;-55
2023/06/19 00:28:45;;;;;;;16.12;10.48;;;;;;;18.05;50.37;100520.82;1770825;79;21193;-55
2023/06/19 00:31:53;;;;;;;14.73;10.55;;;;;;;17.98;50.40;100520.55;1770837;79;21292;-54
2023/06/19 00:35:00;;;;;;;17.42;10.28;;;;;;;17.92;50.48;100525.59;1770788;79;21205;-54
2023/06/19 00:38:05;;;;;;;17.52;10.20;;;;;;;17.84;50.56;100529.42;1771074;79;21327;-53
2023/06/19 00:41:12;;;;;;;17.37;10.80;;;;;;;17.80;50.73;100530.95;1770946;80;21390;-53
2023/06/19 00:44:18;;;;;;;18.95;10.38;;;;;;;17.77;50.99;100530.83;1770742;79;21251;-54
2023/06/19 00:47:25;;;;;;;18.27;10.88;;;;;;;17.75;51.13;100527.46;1770778;81;21256;-54
2023/06/19 00:50:31;;;;;;;17.00;10.50;;;;;;;17.72;51.15;100531.19;1770671;81;21607;-53
2023/06/19 00:53:39;;;;;;;16.23;10.40;;;;;;;17.70;51.32;100523.11;1770747;79;21275;-53
2023/06/19 00:56:46;;;;;;;17.75;10.32;;;;;;;17.68;51.40;100527.14;1764031;81;21841;-53
2023/06/19 00:59:52;;;;;;;17.10;10.63;;;;;;;17.66;51.50;100530.69;1770997;79;21248;-53
2023/06/19 01:02:59;;;;;;;14.58;10.20;;;;;;;17.62;51.55;100520.58;1770942;79;21741;-55
2023/06/19 01:06:05;;;;;;;18.80;10.08;;;;;;;17.59;51.65;100523.78;1771488;80;21807;-54
2023/06/19 01:09:13;;;;;;;20.23;10.53;;;;;;;17.55;51.68;100528.59;1770678;79;21232;-54
2023/06/19 01:12:26;;;;;;;15.90;9.85;;;;;;;17.48;51.71;100531.90;1770919;80;21711;-54
2023/06/19 01:15:33;;;;;;;14.98;10.00;;;;;;;17.41;51.76;100522.75;1770697;81;21296;-53
2023/06/19 01:18:40;;;;;;;16.67;9.95;;;;;;;17.36;51.94;100519.77;1770900;79;21753;-53
2023/06/19 01:21:46;;;;;;;17.45;10.80;;;;;;;17.32;52.02;100526.27;1770923;80;21335;-54
2023/06/19 01:24:52;;;;;;;18.35;10.55;;;;;;;17.27;52.10;100529.34;1772182;79;21363;-53
2023/06/19 01:28:00;;;;;;;16.27;10.88;;;;;;;17.24;52.27;100525.11;1770885;79;21204;-53
2023/06/19 01:31:06;;;;;;;16.40;10.18;;;;;;;17.19;52.37;100521.27;1771114;80;21556;-54
2023/06/19 01:34:14;;;;;;;18.65;10.05;;;;;;;17.17;52.47;100522.04;1771004;79;21260;-54
2023/06/19 01:37:21;;;;;;;14.98;10.05;;;;;;;17.12;52.58;100524.08;1771305;79;21236;-54
2023/06/19 01:40:31;;;;;;;15.65;9.80;;;;;;;17.10;52.68;100528.10;1770930;79;21375;-54
2023/06/19 01:43:36;;;;;;;17.73;9.90;;;;;;;17.11;52.89;100527.88;1770926;79;21208;-53
2023/06/19 01:46:42;;;;;;;17.98;10.10;;;;;;;17.11;52.97;100529.27;1770802;81;21204;-55
2023/06/19 01:49:49;;;;;;;19.30;10.20;;;;;;;17.13;53.12;100531.81;1770836;79;21410;-53
2023/06/19 01:52:56;;;;;;;17.67;10.50;;;;;;;17.16;53.13;100532.77;1770530;79;21229;-53
2023/06/19 01:56:02;;;;;;;20.72;10.55;;;;;;;17.14;53.20;100529.39;1770870;80;21244;-53
2023/06/19 01:59:07;;;;;;;19.55;10.63;;;;;;;17.16;53.25;100528.62;1770904;79;21265;-53
2023/06/19 02:02:14;;;;;;;17.32;9.65;;;;;;;17.12;53.29;100521.83;1770911;79;21319;-54
2023/06/19 02:05:20;;;;;;;20.30;10.45;;;;;;;17.14;53.41;100529.39;1770819;79;21335;-53
2023/06/19 02:08:26;;;;;;;24.32;10.20;;;;;;;17.15;53.51;100526.92;1770774;79;21871;-54
2023/06/19 02:11:34;;;;;;;17.23;10.08;;;;;;;17.13;53.44;100522.13;1770652;79;21844;-55
2023/06/19 02:14:40;;;;;;;16.87;9.40;;;;;;;17.11;53.49;100531.20;1770568;79;21200;-54
2023/06/19 02:17:46;;;;;;;15.80;10.35;;;;;;;17.11;53.57;100528.44;1770900;80;21378;-55
2023/06/19 02:20:53;;;;;;;15.78;10.93;;;;;;;17.12;53.63;100527.36;1770676;80;21197;-54
2023/06/19 02:23:59;;;;;;;15.35;9.83;;;;;;;17.12;53.68;100524.59;1770768;79;21220;-54
2023/06/19 02:27:05;;;;;;;18.55;10.20;;;;;;;17.13;53.73;100527.66;1735300;82;21236;-53
2023/06/19 02:30:11;;;;;;;16.07;9.90;;;;;;;17.13;53.75;100521.61;1735290;81;21235;-53
2023/06/19 02:33:16;;;;;;;17.05;10.43;;;;;;;17.14;53.80;100529.39;1735315;81;21223;-54
2023/06/19 02:36:21;;;;;;;11.90;9.15;;;;;;;17.19;53.95;100530.95;1735434;82;21173;-55
2023/06/19 02:39:28;;;;;;;15.58;9.55;;;;;;;17.23;53.99;100530.86;1735249;81;21238;-54
2023/06/19 02:42:34;;;;;;;15.18;9.53;;;;;;;17.27;54.02;100533.50;1735460;82;21207;-55
2023/06/19 02:45:41;;;;;;;16.20;9.83;;;;;;;17.30;54.11;100531.16;1735495;81;21574;-55
2023/06/19 02:48:48;;;;;;;18.23;10.00;;;;;;;17.35;54.22;100536.90;1738290;81;21351;-54
2023/06/19 02:51:58;;;;;;;12.18;9.00;;;;;;;17.40;54.26;100539.88;1735410;82;21716;-54
2023/06/19 02:55:03;;;;;;;16.73;10.00;;;;;;;17.43;54.23;100539.44;1735466;81;21200;-53
2023/06/19 02:58:10;;;;;;;18.67;10.15;;;;;;;17.48;54.30;100549.37;1735536;81;21744;-54
2023/06/19 03:01:15;;;;;;;14.65;11.03;;;;;;;17.54;54.41;100546.25;1735484;82;21211;-55
2023/06/19 03:04:22;;;;;;;20.02;10.78;;;;;;;17.61;54.44;100552.63;1735525;81;21267;-55
2023/06/19 03:07:28;;;;;;;14.35;10.08;;;;;;;17.69;54.57;100542.70;1735384;82;21239;-55
2023/06/19 03:10:34;;;;;;;18.73;10.38;;;;;;;17.76;54.63;100547.14;1735455;82;21199;-55
2023/06/19 03:13:55;;;;;;;16.23;9.48;;;;;;;17.85;54.66;100551.92;1735393;81;21215;-55
2023/06/19 03:17:01;;;;;;;16.35;9.43;;;;;;;17.95;54.65;100558.38;1735528;81;21705;-55
2023/06/19 03:20:11;;;;;;;17.45;9.35;;;;;;;18.00;54.68;100556.64;1735532;81;21266;-55
2023/06/19 03:23:18;;;;;;;19.37;10.23;;;;;;;18.08;54.76;100561.94;1735370;81;21768;-55
2023/06/19 03:26:22;;;;;;;18.57;9.90;;;;;;;18.16;54.81;100565.84;1750521;78;21835;-56
2023/06/19 03:29:28;;;;;;;15.03;9.98;;;;;;;18.24;54.87;100561.44;1770852;79;21345;-56
2023/06/19 03:32:35;;;;;;;18.50;10.03;;;;;;;18.33;54.90;100554.55;1771124;80;21196;-56
2023/06/19 03:35:51;;;;;;;17.20;9.45;;;;;;;18.41;54.86;100557.09;1770541;80;21294;-57
2023/06/19 03:38:59;;;;;;;13.68;9.73;;;;;;;18.48;54.83;100555.67;1767050;79;21693;-55
2023/06/19 03:42:05;;;;;;;17.90;9.85;;;;;;;18.55;54.89;100563.43;1771057;80;21871;-56
2023/06/19 03:45:12;;;;;;;13.28;9.53;;;;;;;18.63;54.94;100559.84;1770957;79;22741;-55
2023/06/19 03:48:19;;;;;;;16.45;9.35;;;;;;;18.71;54.95;100557.35;1770972;79;21204;-55
2023/06/19 03:51:26;;;;;;;16.70;9.03;;;;;;;18.83;55.00;100562.48;1770473;80;21178;-54
2023/06/19 03:54:33;;;;;;;14.55;10.05;;;;;;;18.92;55.04;100556.43;1770754;79;21733;-55
2023/06/19 03:57:39;;;;;;;15.53;8.93;;;;;;;19.03;55.08;100558.47;1771193;80;21220;-55
2023/06/19 04:00:46;;;;;;;17.42;8.78;;;;;;;19.15;55.15;100565.53;1770699;80;21220;-57
2023/06/19 04:03:52;;;;;;;16.77;8.83;;;;;;;19.26;55.10;100565.64;1770839;79;21246;-55
2023/06/19 04:07:00;;;;;;;13.38;8.48;;;;;;;19.36;55.06;100563.74;1771399;80;21217;-55
2023/06/19 04:10:06;;;;;;;14.13;8.83;;;;;;;19.47;55.04;100560.24;1770717;79;21835;-56
2023/06/19 04:13:13;;;;;;;13.35;8.75;;;;;;;19.57;54.98;100564.71;1770620;80;21197;-56
2023/06/19 04:16:19;;;;;;;15.80;8.88;;;;;;;19.66;54.94;100561.11;1771195;80;21236;-55
2023/06/19 04:19:25;;;;;;;15.25;8.18;;;;;;;19.76;54.99;100557.23;1770670;79;21200;-55
2023/06/19 04:22:30;;;;;;;11.28;7.90;;;;;;;19.86;54.96;100558.41;1770170;80;21374;-54
2023/06/19 04:25:39;;;;;;;12.30;7.55;;;;;;;19.95;54.95;100556.15;1770492;81;21190;-56
2023/06/19 04:28:45;;;;;;;11.20;7.78;;;;;;;20.07;54.89;100562.64;1771404;79;21193;-55
2023/06/19 04:31:53;;;;;;;13.32;7.42;;;;;;;20.15;54.88;100566.53;1770044;80;21209;-56
2023/06/19 04:35:00;;;;;;;11.73;6.08;;;;;;;20.26;54.85;100569.91;1771044;79;21756;-55
2023/06/19 04:38:06;;;;;;;10.20;6.65;;;;;;;20.34;54.84;100563.47;1770809;79;21216;-55
2023/06/19 04:41:14;;;;;;;12.68;6.15;;;;;;;20.45;54.80;100569.66;1739265;81;21414;-57
2023/06/19 04:44:19;;;;;;;11.15;6.53;;;;;;;20.55;54.78;100568.52;1739160;81;21407;-56
2023/06/19 04:47:29;;;;;;;11.38;6.20;;;;;;;20.64;54.75;100565.70;1739994;82;21350;-55
2023/06/19 04:50:37;;;;;;;8.70;5.70;;;;;;;20.76;54.71;100569.92;1740123;82;21324;-55
2023/06/19 04:53:43;;;;;;;14.47;5.87;;;;;;;20.87;54.63;100567.72;1761151;80;21355;-55
2023/06/19 04:56:50;;;;;;;11.80;6.00;;;;;;;20.97;54.58;100569.95;1769489;80;21208;-53
2023/06/19 04:59:58;;;;;;;9.25;5.50;;;;;;;21.06;54.54;100573.55;1770373;79;21757;-57
2023/06/19 05:03:06;;;;;;;10.80;5.28;;;;;;;21.14;54.46;100567.62;1765139;81;21722;-57
2023/06/19 05:06:13;;;;;;;7.87;5.05;;;;;;;21.24;54.36;100567.89;1764793;79;21879;-55
2023/06/19 05:09:19;;;;;;;12.35;5.20;;;;;;;21.34;54.30;100572.33;1759255;80;21219;-56
2023/06/19 05:12:24;;;;;;;9.88;5.20;;;;;;;21.44;54.22;100579.52;1759576;80;21192;-56
2023/06/19 05:15:31;;;;;;;8.65;5.17;;;;;;;21.53;54.13;100583.63;1753091;80;21232;-57
2023/06/19 05:18:37;;;;;;;16.73;9.95;;;;;;;21.61;54.09;100584.66;1769926;80;21315;-55
2023/06/19 05:21:44;;;;;;;13.30;7.70;;;;;;;21.71;54.01;100583.52;1762636;81;21856;-57
2023/06/19 05:24:51;;;;;;;12.78;5.95;;;;;;;21.80;53.89;100589.05;1766568;79;21218;-56
2023/06/19 05:27:58;;;;;;;9.25;5.30;;;;;;;21.89;53.83;100587.61;1762868;79;21742;-56
2023/06/19 05:31:04;;;;;;;7.85;4.92;;;;;;;21.99;53.74;100582.80;1771791;80;21335;-57
2023/06/19 05:34:12;;;;;;;6.58;4.12;;;;;;;22.09;53.64;100588.05;1772395;79;21648;-57
2023/06/19 05:37:21;;;;;;;6.62;4.20;;;;;;;22.19;53.51;100588.81;1772404;79;21363;-58
2023/06/19 05:40:28;;;;;;;9.63;4.80;;;;;;;22.29;53.43;100589.57;1771991;80;21181;-56
2023/06/19 05:43:33;;;;;;;6.58;3.70;;;;;;;22.38;53.28;100591.73;1731898;82;21373;-55
2023/06/19 05:46:41;;;;;;;7.90;4.10;;;;;;;22.48;53.22;100587.76;1745664;81;21993;-56
2023/06/19 05:49:48;;;;;;;5.62;3.25;;;;;;;22.56;53.06;100591.58;1740163;80;21930;-56
2023/06/19 05:52:54;;;;;;;7.17;3.90;;;;;;;22.67;52.97;100592.08;1741869;81;21402;-56
2023/06/19 05:56:06;;;;;;;7.17;3.90;;;;;;;22.75;52.86;100584.70;1741952;81;21816;-56
2023/06/19 05:59:14;;;;;;;5.35;3.12;;;;;;;22.88;52.79;100583.55;1760723;79;21372;-55
2023/06/19 06:02:20;;;;;;;7.40;3.70;;;;;;;22.97;52.72;100584.81;1771011;79;21378;-58
2023/06/19 06:05:27;;;;;;;10.95;3.50;;;;;;;23.06;52.57;100581.36;1771235;80;21391;-56
2023/06/19 06:08:32;;;;;;;16.10;3.95;;;;;;;23.14;52.37;100585.67;1762892;80;21228;-57
2023/06/19 06:11:38;;;;;;;7.85;3.52;;;;;;;23.21;52.19;100582.19;1770262;80;22089;-56
2023/06/19 06:14:47;;;;;;;4.90;3.08;;;;;;;23.30;52.03;100582.08;1761659;80;21213;-55
2023/06/19 06:17:52;;;;;;;8.70;4.03;;;;;;;23.37;51.82;100584.99;1760765;79;21402;-57
2023/06/19 06:21:00;;;;;;;10.05;4.05;;;;;;;23.44;51.65;100583.42;1771911;80;21833;-55
2023/06/19 06:24:07;;;;;;;5.87;3.40;;;;;;;23.52;51.52;100587.19;1770665;79;21394;-57
2023/06/19 06:27:12;;;;;;;7.17;3.30;;;;;;;23.62;51.39;100583.17;1761770;80;21800;-57
2023/06/19 06:30:19;;;;;;;6.70;3.72;;;;;;;23.68;51.18;100589.13;1766608;79;21691;-57
2023/06/19 06:33:26;;;;;;;14.38;4.17;;;;;;;23.75;51.00;100587.02;1730874;81;21278;-56
2023/06/19 06:36:33;;;;;;;14.13;7.85;;;;;;;23.83;50.88;100583.78;1716036;82;21741;-56
2023/06/19 06:39:41;;;;;;;13.62;7.37;;;;;;;23.93;50.70;100579.71;1688965;83;21261;-58
2023/06/19 06:42:47;;;;;;;11.20;6.70;;;;;;;24.02;50.54;100573.16;1709607;82;21785;-56
2023/06/19 06:45:55;;;;;;;7.47;3.60;;;;;;;24.09;50.36;100577.45;1718043;82;21208;-57
2023/06/19 06:49:01;;;;;;;7.08;3.58;;;;;;;24.17;50.21;100575.61;1714343;83;21749;-57
2023/06/19 06:52:08;;;;;;;8.58;3.70;;;;;;;24.25;49.97;100579.89;1689910;85;21356;-55
2023/06/19 06:55:15;;;;;;;10.63;3.50;;;;;;;24.32;49.81;100575.81;1761220;81;21770;-57
2023/06/19 06:58:22;;;;;;;22.00;3.98;;;;;;;24.39;49.68;100566.65;1760812;79;21185;-57
2023/06/19 07:01:28;;;;;;;8.48;3.90;;;;;;;24.47;49.48;100570.39;1768940;80;21247;-57
2023/06/19 07:04:36;;;;;;;7.15;3.55;;;;;;;24.53;49.26;100573.53;1769802;79;21240;-56
2023/06/19 07:07:42;;;;;;;6.65;3.37;;;;;;;24.59;49.06;100568.27;1768836;80;21880;-57
2023/06/19 07:10:49;;;;;;;12.03;3.90;;;;;;;24.64;48.82;100561.34;1762851;80;21263;-56
2023/06/19 07:13:55;;;;;;;5.47;3.05;;;;;;;24.70;48.64;100570.14;1755493;79;21244;-56
2023/06/19 07:17:01;;;;;;;6.65;3.55;;;;;;;24.76;48.42;100554.22;1756006;80;21188;-57
2023/06/19 07:20:07;;;;;;;8.03;3.80;;;;;;;24.83;48.23;100557.67;1748981;80;21781;-61
2023/06/19 07:23:06;;;;;;;7.87;4.40;;;;;;;24.91;48.12;100557.19;1777959;79;21363;-55
2023/06/19 07:26:00;;;;;;;7.95;4.22;;;;;;;24.97;47.92;100555.55;1754734;79;21177;-55
2023/06/19 07:28:49;;;;;;;8.75;4.55;;;;;;;25.04;47.79;100554.78;1755242;80;21244;-58
2023/06/19 07:31:42;;;;;;;;;;;;;;;25.11;47.58;100548.11;1758061;79;21741;-56
2023/06/19 07:34:50;;;;;;;7.85;4.25;;;;;;;25.18;47.43;100550.15;1759318;79;20298;-57
2023/06/19 07:37:57;;;;;;;8.33;4.00;;;;;;;25.28;47.27;100551.06;1767406;79;21251;-57
2023/06/19 07:41:03;;;;;;;5.95;4.37;;;;;;;25.33;46.99;100554.46;1755483;81;21753;-57
2023/06/19 07:44:09;;;;;;;8.93;3.87;;;;;;;25.38;46.81;100553.14;1769366;79;21604;-62
2023/06/19 07:47:15;;;;;;;8.68;4.08;;;;;;;25.46;46.72;100561.05;1762632;81;21414;-57
2023/06/19 07:50:20;;;;;;;11.00;6.55;;;;;;;25.54;46.50;100553.55;1766947;81;21706;-57
2023/06/19 07:53:26;;;;;;;11.75;5.00;;;;;;;25.61;46.33;100562.00;1767347;79;21749;-57
2023/06/19 07:56:33;;;;;;;8.68;4.53;;;;;;;25.70;46.14;100558.14;1768536;79;21243;-56
2023/06/19 07:59:38;;;;;;;10.75;4.85;;;;;;;25.74;45.72;100564.89;1768908;79;21220;-56
2023/06/19 08:02:46;;;;;;;8.28;4.80;;;;;;;25.76;45.55;100560.72;1769123;81;21232;-56
2023/06/19 08:05:54;;;;;;;8.63;4.30;;;;;;;25.81;45.41;100559.35;1769350;79;21224;-56
2023/06/19 08:09:00;;;;;;;6.90;4.50;;;;;;;25.89;45.26;100553.78;1759653;80;21792;-56
2023/06/19 08:12:05;;;;;;;7.28;4.85;;;;;;;25.96;45.10;100559.97;1750066;80;21375;-56
2023/06/19 08:15:17;;;;;;;9.43;4.50;;;;;;;26.00;44.87;100554.16;1756071;79;21282;-56
2023/06/19 08:18:20;;;;;;;7.53;4.55;;;;;;;26.05;44.67;100552.78;1731560;81;21563;-57
2023/06/19 08:21:28;;;;;;;9.98;4.25;;;;;;;26.11;44.55;100543.27;1754192;81;21319;-57
2023/06/19 08:24:36;;;;;;;12.95;4.42;;;;;;;26.21;44.44;100555.95;1750349;79;21244;-56
2023/06/19 08:27:41;;;;;;;11.93;4.97;;;;;;;26.29;44.33;100559.05;1751171;81;21237;-56
2023/06/19 08:30:48;;;;;;;7.80;3.90;;;;;;;26.38;44.22;100555.17;1748899;81;21224;-57
2023/06/19 08:33:55;;;;;;;8.90;4.00;;;;;;;26.45;44.03;100553.78;1749002;79;21177;-56
2023/06/19 08:37:02;;;;;;;7.28;4.03;;;;;;;26.55;43.84;100568.42;1748237;80;21225;-58
2023/06/19 08:40:09;;;;;;;10.75;4.33;;;;;;;26.60;43.58;100564.78;1754677;80;21244;-56
2023/06/19 08:43:17;;;;;;;10.95;3.92;;;;;;;26.59;43.22;100559.74;1684122;83;21202;-56
2023/06/19 08:46:24;;;;;;;5.83;3.10;;;;;;;26.62;43.13;100562.00;1711606;83;21748;-55
2023/06/19 08:49:30;;;;;;;6.60;3.33;;;;;;;26.68;42.95;100558.66;1763856;79;21259;-57
2023/06/19 08:52:36;;;;;;;8.60;3.85;;;;;;;26.71;42.72;100565.98;1747931;79;21558;-56
2023/06/19 08:55:41;;;;;;;7.67;3.80;;;;;;;26.75;42.46;100569.91;1753719;80;21216;-56
2023/06/19 08:58:47;;;;;;;8.13;3.85;;;;;;;26.77;42.21;100566.27;1755191;79;21796;-55
2023/06/19 09:01:58;;;;;;;7.12;4.03;;;;;;;26.77;42.00;100573.29;1759914;79;21306;-54
2023/06/19 09:05:21;;;;;;;6.72;3.80;;;;;;;26.85;41.98;100563.47;1753592;80;21236;-55
2023/06/19 09:08:29;;;;;;;6.15;3.27;;;;;;;26.94;41.86;100562.64;1758908;80;21181;-55
2023/06/19 09:11:34;;;;;;;7.90;3.25;;;;;;;27.08;41.77;100571.39;1761497;79;22291;-55
2023/06/19 09:14:48;;;;;;;8.28;4.42;;;;;;;27.18;41.55;100560.98;1748106;80;21773;-56
2023/06/19 09:17:54;;;;;;;8.18;3.75;;;;;;;27.27;41.37;100552.88;1738178;81;21744;-54
2023/06/19 09:21:01;;;;;;;7.85;3.08;;;;;;;27.35;41.16;100554.55;1766486;79;21247;-54
2023/06/19 09:24:16;;;;;;;9.15;5.35;;;;;;;27.43;40.99;100543.31;1796675;79;21212;-53
2023/06/19 09:27:24;;;;;;;9.13;3.50;;;;;;;27.51;40.80;100547.78;1797840;79;21346;-53
2023/06/19 09:30:31;;;;;;;9.38;3.08;;;;;;;27.61;40.73;100547.78;1746004;81;21238;-55
2023/06/19 09:33:42;;;;;;;5.60;2.85;;;;;;;27.71;40.58;100554.81;1765118;80;21760;-54
2023/06/19 09:36:49;;;;;;;4.10;2.60;;;;;;;27.74;40.25;100540.17;1767517;80;21212;-55
2023/06/19 09:39:54;;;;;;;6.92;2.80;;;;;;;27.75;39.96;100536.77;1769138;79;21219;-52
2023/06/19 09:42:59;;;;;;;8.98;4.42;;;;;;;27.78;39.76;100532.01;1732033;81;21180;-52
2023/06/19 09:46:04;;;;;;;13.43;5.37;;;;;;;27.80;39.48;100537.62;1744294;80;21227;-51
2023/06/19 09:49:10;;;;;;;12.53;3.98;;;;;;;27.76;39.32;100531.44;1768922;79;21752;-52
2023/06/19 09:52:16;;;;;;;6.12;2.83;;;;;;;27.80;39.28;100543.25;1762736;80;21252;-51
2023/06/19 09:55:28;;;;;;;7.83;3.10;;;;;;;27.94;39.29;100537.06;1769264;81;21194;-52
2023/06/19 09:58:33;;;;;;;7.70;3.50;;;;;;;28.05;39.13;100534.48;1685464;82;21631;-53
2023/06/19 10:01:39;;;;;;;6.30;2.62;;;;;;;28.19;39.02;100538.37;1751792;80;21204;-57
2023/06/19 10:04:59;;;;;;;6.50;3.12;;;;;;;28.32;38.91;100530.13;1761669;79;21174;-55
2023/06/19 10:08:05;;;;;;;5.10;2.80;;;;;;;28.41;38.63;100528.98;1767827;79;21200;-56
2023/06/19 10:11:10;;;;;;;11.33;3.15;;;;;;;28.47;38.36;100532.03;1767739;80;22058;-58
2023/06/19 10:14:18;;;;;;;10.50;3.42;;;;;;;28.54;38.31;100524.98;1769201;80;21209;-54
2023/06/19 10:17:26;;;;;;;9.15;2.90;;;;;;;28.63;38.15;100519.59;1769570;80;21293;-55
2023/06/19 10:20:41;;;;;;;5.08;2.90;;;;;;;28.71;38.02;100514.19;1761579;80;21224;-55
2023/06/19 10:23:48;;;;;;;8.15;2.83;;;;;;;28.83;37.90;100514.66;1769591;80;21208;-55
2023/06/19 10:27:10;;;;;;;9.53;3.33;;;;;;;28.90;37.68;100519.41;1769143;79;21317;-56
2023/06/19 10:30:19;;;;;;;7.03;3.30;;;;;;;28.92;37.43;100519.94;1760075;80;21891;-54
2023/06/19 10:33:26;;;;;;;6.10;2.87;;;;;;;28.90;37.20;100512.92;1772935;79;21346;-56
2023/06/19 10:36:31;;;;;;;8.73;3.12;;;;;;;28.97;37.21;100510.63;1769247;79;21346;-55
2023/06/19 10:39:40;;;;;;;8.83;3.00;;;;;;;29.13;37.26;100506.55;1767743;80;21904;-56
2023/06/19 10:42:45;;;;;;;8.15;3.00;;;;;;;29.28;37.21;100505.59;1768163;80;21375;-55
2023/06/19 10:45:52;;;;;;;5.03;3.08;;;;;;;29.42;37.03;100507.98;1768861;79;21355;-56
2023/06/19 10:49:04;;;;;;;6.87;2.40;;;;;;;29.54;36.88;100500.84;1761043;80;21373;-55
2023/06/19 10:52:08;;;;;;;6.05;3.00;;;;;;;29.71;36.22;100489.11;1759217;80;21204;-54
2023/06/19 10:55:15;;;;;;;9.13;3.60;;;;;;;29.71;36.22;100489.11;1717044;82;21212;-54
2023/06/19 10:58:22;;;;;;;10.20;3.50;;;;;;;29.84;36.39;100492.07;1749676;79;21919;-54
2023/06/19 11:01:28;;;;;;;8.35;4.97;;;;;;;29.94;36.25;100493.34;1766776;80;21920;-58
2023/06/19 11:04:51;;;;;;;7.67;4.45;;;;;;;30.03;36.14;100501.41;1757329;80;21371;-55
2023/06/19 11:08:02;;;;;;;5.83;3.65;;;;;;;30.03;35.72;100494.34;1760031;80;21181;-54
2023/06/19 11:11:08;;;;;;;11.12;4.65;;;;;;;29.98;35.48;100487.38;1755508;80;21181;-55
2023/06/19 11:14:14;;;;;;;5.17;3.50;;;;;;;29.99;35.26;100476.34;1699116;82;21316;-48
2023/06/19 11:17:23;;;;;;;10.32;3.70;;;;;;;30.04;35.19;100474.87;1764321;81;21204;-56
2023/06/19 11:20:28;;;;;;;10.70;4.03;;;;;;;30.11;35.12;100476.73;1751098;80;21301;-55
2023/06/19 11:23:37;;;;;;;11.80;4.22;;;;;;;30.09;34.88;100477.63;1742663;81;21355;-55
2023/06/19 11:26:54;;;;;;;10.23;3.90;;;;;;;30.08;34.80;100475.94;1750506;80;21192;-54
2023/06/19 11:30:07;;;;;;;7.12;3.45;;;;;;;29.96;34.10;100472.71;1759695;80;21197;-55
2023/06/19 11:33:25;;;;;;;17.85;10.43;;;;;;;29.96;34.10;100472.71;1753836;79;21296;-57
2023/06/19 11:36:32;;;;;;;11.50;4.08;;;;;;;30.08;34.31;100471.70;1773533;79;21643;-55
2023/06/19 11:39:38;;;;;;;7.12;4.10;;;;;;;30.08;34.31;100471.70;1702149;82;21267;-54
2023/06/19 11:42:59;;;;;;;9.35;4.03;;;;;;;30.03;33.87;100469.53;1762323;81;21208;-54
2023/06/19 11:46:15;;;;;;;8.10;3.40;;;;;;;29.95;33.81;100465.39;1750600;80;22145;-54
2023/06/19 11:49:25;;;;;;;6.78;3.60;;;;;;;29.98;33.70;100458.30;1773897;79;21259;-54
2023/06/19 11:52:31;;;;;;;6.65;3.83;;;;;;;30.05;33.89;100470.08;1763132;80;21181;-56
2023/06/19 11:55:38;;;;;;;7.58;3.67;;;;;;;30.01;33.43;100460.51;1749517;80;21328;-55
2023/06/19 11:58:45;;;;;;;5.22;3.55;;;;;;;29.97;33.34;100457.44;1767116;80;21355;-55
2023/06/19 12:01:51;;;;;;;6.62;3.42;;;;;;;29.98;33.21;100459.70;1767376;80;21728;-56
2023/06/19 12:04:59;;;;;;;9.33;4.00;;;;;;;29.96;33.17;100445.89;1768019;80;21413;-54
2023/06/19 12:08:02;;;;;;;7.03;3.55;;;;;;;29.98;33.00;100454.05;1770154;79;21828;-55
2023/06/19 12:10:55;;;;;;;11.65;4.03;;;;;;;29.96;32.93;100447.86;1770129;79;21161;-56
2023/06/19 12:13:43;;;;;;;7.78;3.87;;;;;;;29.94;32.66;100448.16;1769982;79;21197;-55
2023/06/19 12:16:35;;;;;;;7.22;4.28;;;;;;;29.88;32.61;100436.67;1737678;80;21266;-57
2023/06/19 12:19:41;;;;;;;5.97;4.00;;;;;;;29.91;32.63;100443.13;1739376;81;21355;-57
2023/06/19 12:22:47;;;;;;;5.40;4.10;;;;;;;29.89;32.73;100439.75;1761638;80;21232;-55
2023/06/19 12:25:52;;;;;;;6.35;3.65;;;;;;;29.95;32.51;100432.92;1761914;81;21193;-55
2023/06/19 12:28:57;;;;;;;5.03;3.20;;;;;;;29.97;32.40;100432.63;1767515;79;21248;-55
2023/06/19 12:32:10;;;;;;;6.08;3.75;;;;;;;29.95;32.21;100428.69;1768349;80;21244;-55
2023/06/19 12:35:16;;;;;;;6.33;3.75;;;;;;;29.86;32.20;100424.83;1768816;79;21893;-55
2023/06/19 12:38:21;;;;;;;6.92;3.77;;;;;;;29.91;32.14;100433.24;1714026;83;22023;-55
2023/06/19 12:41:28;;;;;;;6.85;3.72;;;;;;;29.92;31.96;100425.03;1723329;82;21805;-55
2023/06/19 12:44:36;;;;;;;9.50;3.87;;;;;;;29.92;31.96;100425.03;1721297;83;21637;-55
2023/06/19 12:47:44;;;;;;;6.85;3.50;;;;;;;29.99;32.00;100424.66;1692182;83;21173;-53
2023/06/19 12:50:51;;;;;;;8.38;4.20;;;;;;;29.90;31.73;100416.05;1724137;83;21297;-56
2023/06/19 12:53:58;;;;;;;7.37;3.92;;;;;;;29.76;31.54;100409.45;1724757;81;21232;-54
2023/06/19 12:57:03;;;;;;;9.50;4.35;;;;;;;29.60;31.41;100405.09;1722451;82;21383;-54
2023/06/19 13:00:11;;;;;;;8.03;3.98;;;;;;;29.55;31.52;100399.51;1709763;83;21237;-55
2023/06/19 13:03:18;;;;;;;7.05;4.03;;;;;;;29.71;31.72;100401.05;1725007;82;21769;-56
2023/06/19 13:06:24;;;;;;;12.47;4.95;;;;;;;29.78;31.82;100395.85;1705835;82;21209;-55
2023/06/19 13:09:29;;;;;;;7.65;4.37;;;;;;;29.82;31.92;100394.69;1724341;82;21220;-56
2023/06/19 13:12:39;;;;;;;9.03;3.98;;;;;;;29.82;31.92;100394.69;1695775;84;21224;-56
2023/06/19 13:15:44;;;;;;;8.00;3.98;;;;;;;29.84;31.65;100393.27;1711254;82;21627;-56
2023/06/19 13:18:52;;;;;;;7.58;4.30;;;;;;;29.84;31.49;100399.47;1724761;82;21860;-57
2023/06/19 13:21:57;;;;;;;7.42;3.95;;;;;;;29.79;31.49;100389.09;1724101;83;21197;-57
2023/06/19 13:25:06;;;;;;;5.75;4.10;;;;;;;29.81;31.59;100386.78;1707582;83;21750;-57
2023/06/19 13:28:12;;;;;;;5.67;3.83;;;;;;;29.81;31.59;100386.78;1724786;82;21980;-55
2023/06/19 13:31:19;;;;;;;7.95;3.90;;;;;;;29.81;31.37;100389.60;1711424;83;21313;-55
2023/06/19 13:34:26;;;;;;;13.85;3.80;;;;;;;29.73;31.23;100388.86;1725195;82;21252;-56
2023/06/19 13:37:33;;;;;;;11.05;3.62;;;;;;;29.69;31.28;100403.31;1727029;80;21216;-57
2023/06/19 13:40:38;;;;;;;8.95;3.98;;;;;;;29.70;31.29;100400.75;1732247;83;21202;-55
2023/06/19 13:43:45;;;;;;;7.20;4.42;;;;;;;29.69;31.39;100396.27;1733242;81;21212;-56
2023/06/19 13:46:51;;;;;;;6.50;3.65;;;;;;;29.71;31.25;100395.40;1768183;79;21361;-55
2023/06/19 13:49:58;;;;;;;10.00;4.12;;;;;;;29.75;31.24;100390.81;1757056;79;21252;-56
2023/06/19 13:53:05;;;;;;;7.33;3.50;;;;;;;29.79;31.30;100390.50;1770149;79;21399;-56
2023/06/19 13:56:11;;;;;;;6.70;4.17;;;;;;;29.79;31.30;100390.50;1757328;79;21181;-55
2023/06/19 13:59:16;;;;;;;8.73;3.58;;;;;;;29.90;31.34;100390.63;1765146;79;21600;-57
2023/06/19 14:02:22;;;;;;;9.73;3.80;;;;;;;30.01;31.18;100385.11;1752290;80;21219;-56
2023/06/19 14:05:28;;;;;;;6.62;3.92;;;;;;;30.01;31.18;100385.11;1745447;80;21200;-55
2023/06/19 14:08:35;;;;;;;7.67;4.05;;;;;;;30.01;31.25;100380.88;1746670;81;21215;-56
2023/06/19 14:11:40;;;;;;;15.50;4.30;;;;;;;30.00;31.25;100376.35;1743883;80;21683;-57
2023/06/19 14:14:46;;;;;;;6.80;3.90;;;;;;;29.91;31.18;100373.09;1744651;81;21784;-56
2023/06/19 14:17:52;;;;;;;5.90;4.08;;;;;;;29.88;31.34;100374.55;1766452;79;21204;-56
2023/06/19 14:20:59;;;;;;;7.60;4.00;;;;;;;29.96;31.36;100372.47;1771131;80;21749;-56